createdAt,value
2022-08-07T00:02:36.255Z,19.14
2022-08-07T00:04:57.984Z,19.05
2022-08-07T00:07:27.576Z,19.01
2022-08-07T00:10:25.711Z,19.04
2022-08-07T00:12:59.685Z,19.08
2022-08-07T00:15:38.278Z,19.05
2022-08-07T00:18:19.348Z,19.06
2022-08-07T00:20:49.233Z,19.02
2022-08-07T00:23:17.438Z,18.84
2022-08-07T00:25:45.880Z,18.92
2022-08-07T00:28:22.301Z,18.75
2022-08-07T00:30:59.560Z,18.62
2022-08-07T00:33:28.445Z,18.53
2022-08-07T00:36:01.157Z,18.83
2022-08-07T00:38:31.053Z,18.97
2022-08-07T00:40:59.710Z,18.93
2022-08-07T00:43:59.224Z,18.72
2022-08-07T00:46:16.910Z,18.80
2022-08-07T00:48:45.665Z,18.59
2022-08-07T00:51:18.154Z,18.53
2022-08-07T00:53:50.762Z,18.67
2022-08-07T00:56:23.570Z,18.58
2022-08-07T00:59:00.058Z,18.53
2022-08-07T01:01:28.238Z,18.64
2022-08-07T01:04:12.342Z,18.55
2022-08-07T01:06:52.742Z,18.54
2022-08-07T01:10:03.943Z,18.48
2022-08-07T01:12:29.779Z,18.48
2022-08-07T01:15:01.778Z,18.36
2022-08-07T01:17:32.925Z,18.33
2022-08-07T01:20:06.544Z,18.42
2022-08-07T01:22:37.979Z,18.12
2022-08-07T01:25:40.410Z,18.32
2022-08-07T01:28:03.873Z,18.31
2022-08-07T01:30:33.411Z,18.05
2022-08-07T01:33:02.323Z,18.26
2022-08-07T01:35:52.684Z,18.13
2022-08-07T01:38:25.067Z,18.20
2022-08-07T01:40:56.142Z,18.20
2022-08-07T01:43:25.917Z,17.98
2022-08-07T01:45:55.530Z,18.06
2022-08-07T01:48:30.820Z,18.03
2022-08-07T01:51:24.362Z,18.14
2022-08-07T01:54:12.097Z,18.12
2022-08-07T01:56:49.334Z,18.18
2022-08-07T01:59:31.192Z,18.03
2022-08-07T02:02:06.171Z,18.11
2022-08-07T02:04:56.168Z,17.99
2022-08-07T02:07:36.086Z,17.98
2022-08-07T02:10:15.294Z,18.00
2022-08-07T02:12:46.386Z,18.10
2022-08-07T02:15:21.774Z,18.01
2022-08-07T02:17:52.123Z,18.00
2022-08-07T02:20:23.905Z,18.09
2022-08-07T02:22:57.415Z,18.02
2022-08-07T02:26:10.838Z,17.88
2022-08-07T02:28:24.447Z,17.95
2022-08-07T02:30:54.150Z,17.99
2022-08-07T02:33:24.043Z,17.96
2022-08-07T02:36:29.775Z,18.04
2022-08-07T02:38:56.949Z,17.74
2022-08-07T02:41:33.376Z,17.61
2022-08-07T02:44:06.129Z,17.88
2022-08-07T02:46:36.706Z,17.75
2022-08-07T02:49:05.462Z,17.84
2022-08-07T02:51:42.768Z,17.94
2022-08-07T02:54:19.154Z,17.99
2022-08-07T02:56:49.749Z,17.95
2022-08-07T02:59:24.153Z,17.83
2022-08-07T03:01:56.344Z,17.74
2022-08-07T03:04:26.573Z,17.84
2022-08-07T03:06:55.318Z,17.83
2022-08-07T03:09:44.643Z,17.80
2022-08-07T03:12:22.548Z,17.65
2022-08-07T03:14:58.586Z,17.64
2022-08-07T03:17:31.052Z,17.43
2022-08-07T03:20:05.724Z,17.43
2022-08-07T03:22:35.395Z,17.48
2022-08-07T03:25:03.721Z,17.55
2022-08-07T03:27:59.191Z,17.58
2022-08-07T03:30:24.432Z,17.50
2022-08-07T03:32:58.582Z,17.46
2022-08-07T03:35:37.930Z,17.51
2022-08-07T03:38:13.365Z,17.37
2022-08-07T03:40:44.529Z,17.43
2022-08-07T03:43:15.308Z,17.39
2022-08-07T03:45:48.616Z,17.41
2022-08-07T03:48:17.061Z,17.54
2022-08-07T03:50:56.067Z,17.45
2022-08-07T03:54:05.575Z,17.37
2022-08-07T03:56:17.374Z,17.36
2022-08-07T03:59:09.636Z,17.34
2022-08-07T04:01:43.305Z,17.35
2022-08-07T04:04:17.214Z,17.35
2022-08-07T04:06:45.791Z,17.38
2022-08-07T04:09:15.742Z,17.25
2022-08-07T04:12:24.070Z,17.21
2022-08-07T04:14:38.807Z,17.19
2022-08-07T04:17:20.108Z,17.25
2022-08-07T04:19:54.132Z,17.28
2022-08-07T04:22:23.182Z,17.18
2022-08-07T04:24:51.552Z,17.21
2022-08-07T04:27:25.792Z,17.14
2022-08-07T04:30:01.700Z,17.16
2022-08-07T04:32:34.622Z,17.01
2022-08-07T04:35:05.760Z,17.00
2022-08-07T04:38:00.951Z,17.02
2022-08-07T04:40:26.779Z,16.81
2022-08-07T04:43:01.685Z,16.92
2022-08-07T04:45:57.369Z,16.93
2022-08-07T04:48:36.639Z,16.92
2022-08-07T04:51:10.746Z,16.82
2022-08-07T04:54:05.323Z,16.86
2022-08-07T04:58:24.303Z,16.89
2022-08-07T05:00:09.603Z,16.81
2022-08-07T05:02:30.645Z,16.79
2022-08-07T05:05:11.419Z,16.69
2022-08-07T05:07:59.389Z,16.65
2022-08-07T05:10:34.243Z,16.59
2022-08-07T05:14:44.612Z,16.72
2022-08-07T05:15:59.214Z,16.70
2022-08-07T05:18:36.907Z,16.76
2022-08-07T05:21:06.460Z,16.74
2022-08-07T05:23:40.785Z,16.78
2022-08-07T05:26:18.827Z,16.65
2022-08-07T05:28:54.161Z,16.67
2022-08-07T05:31:35.144Z,16.79
2022-08-07T05:34:10.875Z,16.68
2022-08-07T05:36:41.349Z,16.60
2022-08-07T05:40:13.645Z,16.83
2022-08-07T05:42:00.369Z,17.03
2022-08-07T05:44:32.253Z,17.05
2022-08-07T05:47:01.663Z,17.14
2022-08-07T05:49:49.034Z,17.15
2022-08-07T05:52:20.139Z,17.17
2022-08-07T05:54:55.578Z,17.18
2022-08-07T05:57:26.704Z,17.15
2022-08-07T06:00:00.183Z,17.40
2022-08-07T06:02:32.118Z,17.68
2022-08-07T06:05:05.982Z,17.47
2022-08-07T06:08:13.319Z,17.39
2022-08-07T06:10:24.485Z,17.40
2022-08-07T06:12:52.466Z,17.51
2022-08-07T06:15:20.958Z,17.52
2022-08-07T06:17:53.635Z,17.74
2022-08-07T06:20:25.544Z,17.72
2022-08-07T06:23:46.765Z,17.77
2022-08-07T06:25:57.167Z,17.83
2022-08-07T06:28:27.718Z,18.01
2022-08-07T06:30:58.326Z,18.24
2022-08-07T06:33:27.335Z,18.35
2022-08-07T06:36:12.339Z,18.27
2022-08-07T06:38:51.255Z,18.37
2022-08-07T06:42:00.598Z,18.46
2022-08-07T06:44:13.997Z,18.45
2022-08-07T06:46:44.434Z,18.64
2022-08-07T06:49:21.954Z,18.61
2022-08-07T06:51:53.911Z,19.06
2022-08-07T06:55:31.677Z,19.31
2022-08-07T06:57:15.778Z,19.44
2022-08-07T07:00:13.122Z,19.32
2022-08-07T07:02:49.052Z,19.56
2022-08-07T07:06:03.075Z,19.76
2022-08-07T07:08:18.464Z,20.04
2022-08-07T07:10:54.795Z,20.43
2022-08-07T07:13:55.582Z,20.21
2022-08-07T07:16:27.533Z,19.85
2022-08-07T07:19:04.149Z,20.23
2022-08-07T07:22:11.670Z,20.52
2022-08-07T07:24:33.043Z,20.15
2022-08-07T07:27:04.356Z,20.34
2022-08-07T07:29:40.315Z,20.53
2022-08-07T07:32:26.296Z,20.79
2022-08-07T07:34:59.491Z,21.01
2022-08-07T07:37:49.513Z,21.03
2022-08-07T07:40:20.744Z,20.95
2022-08-07T07:42:56.406Z,21.15
2022-08-07T07:46:37.800Z,21.35
2022-08-07T07:48:35.386Z,21.29
2022-08-07T07:51:08.077Z,21.62
2022-08-07T07:53:52.098Z,21.88
2022-08-07T07:56:29.746Z,21.91
2022-08-07T07:59:01.522Z,22.02
2022-08-07T08:02:03.811Z,22.01
2022-08-07T08:04:25.862Z,22.16
2022-08-07T08:06:57.033Z,22.13
2022-08-07T08:09:33.122Z,22.27
2022-08-07T08:12:50.137Z,22.41
2022-08-07T08:15:11.173Z,22.61
2022-08-07T08:18:36.585Z,22.55
2022-08-07T08:20:34.085Z,22.71
2022-08-07T08:23:22.307Z,23.05
2022-08-07T08:26:15.671Z,23.15
2022-08-07T08:28:47.282Z,22.91
2022-08-07T08:31:30.188Z,22.64
2022-08-07T08:34:12.485Z,22.96
2022-08-07T08:36:58.232Z,23.03
2022-08-07T08:39:39.505Z,22.98
2022-08-07T08:42:22.585Z,23.46
2022-08-07T08:45:04.291Z,23.57
2022-08-07T08:47:52.923Z,23.63
2022-08-07T08:50:34.711Z,23.27
2022-08-07T08:53:16.620Z,23.28
2022-08-07T08:55:53.338Z,23.29
2022-08-07T08:58:32.982Z,23.71
2022-08-07T09:01:14.711Z,23.80
2022-08-07T09:03:52.689Z,23.68
2022-08-07T09:06:33.852Z,24.18
2022-08-07T09:09:21.152Z,24.04
2022-08-07T09:12:20.186Z,24.12
2022-08-07T09:15:00.665Z,24.57
2022-08-07T09:18:09.987Z,24.80
2022-08-07T09:20:58.587Z,24.59
2022-08-07T09:24:30.793Z,24.68
2022-08-07T09:26:39.481Z,24.34
2022-08-07T09:30:06.115Z,24.37
2022-08-07T09:32:23.716Z,24.46
2022-08-07T09:36:01.338Z,24.55
2022-08-07T09:38:14.030Z,24.81
2022-08-07T09:41:05.891Z,24.62
2022-08-07T09:44:05.336Z,24.96
2022-08-07T09:47:51.766Z,25.27
2022-08-07T09:50:02.529Z,25.48
2022-08-07T09:52:41.466Z,25.32
2022-08-07T09:55:28.836Z,25.13
2022-08-07T09:58:32.220Z,25.52
2022-08-07T10:01:51.064Z,25.20
2022-08-07T10:04:28.407Z,25.41
2022-08-07T10:07:26.212Z,25.21
2022-08-07T10:10:21.733Z,25.46
2022-08-07T10:13:15.939Z,25.37
2022-08-07T10:16:10.941Z,25.22
2022-08-07T10:19:03.390Z,25.20
2022-08-07T10:22:14.306Z,25.51
2022-08-07T10:24:52.069Z,25.26
2022-08-07T10:27:46.074Z,25.02
2022-08-07T10:30:17.528Z,25.63
2022-08-07T10:33:15.477Z,25.63
2022-08-07T10:36:12.435Z,25.80
2022-08-07T10:38:51.527Z,26.25
2022-08-07T10:41:51.308Z,26.00
2022-08-07T10:44:33.882Z,26.32
2022-08-07T10:47:27.122Z,26.17
2022-08-07T10:50:05.074Z,25.86
2022-08-07T10:52:42.625Z,25.95
2022-08-07T10:55:27.133Z,26.13
2022-08-07T10:58:18.726Z,26.57
2022-08-07T11:01:18.401Z,26.59
2022-08-07T11:04:16.744Z,27.01
2022-08-07T11:06:51.728Z,26.92
2022-08-07T11:10:09.158Z,26.66
2022-08-07T11:12:19.015Z,26.73
2022-08-07T11:15:03.612Z,26.88
2022-08-07T11:17:54.092Z,26.93
2022-08-07T11:20:24.933Z,27.32
2022-08-07T11:23:01.406Z,26.79
2022-08-07T11:25:36.047Z,26.80
2022-08-07T11:28:17.786Z,27.38
2022-08-07T11:30:54.420Z,26.78
2022-08-07T11:33:59.394Z,27.32
2022-08-07T11:36:39.161Z,26.96
2022-08-07T11:39:19.543Z,27.48
2022-08-07T11:42:01.991Z,27.39
2022-08-07T11:44:52.039Z,27.13
2022-08-07T11:47:38.600Z,27.47
2022-08-07T11:50:31.714Z,27.59
2022-08-07T11:53:17.231Z,27.72
2022-08-07T11:56:12.012Z,27.59
2022-08-07T12:00:08.061Z,27.73
2022-08-07T12:02:17.812Z,27.58
2022-08-07T12:05:03.169Z,27.74
2022-08-07T12:07:53.680Z,27.63
2022-08-07T12:11:00.890Z,28.05
2022-08-07T12:13:51.758Z,27.85
2022-08-07T12:16:30.434Z,28.01
2022-08-07T12:19:07.595Z,28.38
2022-08-07T12:22:38.088Z,28.37
2022-08-07T12:24:40.170Z,28.14
2022-08-07T12:27:16.180Z,28.16
2022-08-07T12:30:01.650Z,28.57
2022-08-07T12:32:35.643Z,27.97
2022-08-07T12:35:05.641Z,28.05
2022-08-07T12:38:09.542Z,28.56
2022-08-07T12:40:47.506Z,28.64
2022-08-07T12:44:01.935Z,28.72
2022-08-07T12:46:26.306Z,29.06
2022-08-07T12:49:39.341Z,29.24
2022-08-07T12:52:14.680Z,29.37
2022-08-07T12:55:00.179Z,29.29
2022-08-07T12:57:59.496Z,29.19
2022-08-07T13:00:32.896Z,29.40
2022-08-07T13:03:26.930Z,29.92
2022-08-07T13:06:28.031Z,30.09
2022-08-07T13:10:09.111Z,29.97
2022-08-07T13:12:03.526Z,30.02
2022-08-07T13:14:55.121Z,29.55
2022-08-07T13:17:41.038Z,29.58
2022-08-07T13:20:17.707Z,29.97
2022-08-07T13:22:53.374Z,30.08
2022-08-07T13:25:30.776Z,30.60
2022-08-07T13:28:10.706Z,30.96
2022-08-07T13:31:01.702Z,29.77
2022-08-07T13:34:31.337Z,30.33
2022-08-07T13:36:39.732Z,30.52
2022-08-07T13:39:49.240Z,30.32
2022-08-07T13:42:07.389Z,30.21
2022-08-07T13:44:37.889Z,30.58
2022-08-07T13:47:10.401Z,30.60
2022-08-07T13:50:34.653Z,30.55
2022-08-07T13:52:41.438Z,30.93
2022-08-07T13:55:19.148Z,31.11
2022-08-07T13:58:02.297Z,30.30
2022-08-07T14:00:39.503Z,30.17
2022-08-07T14:03:29.182Z,30.31
2022-08-07T14:06:11.323Z,30.44
2022-08-07T14:08:45.736Z,31.17
2022-08-07T14:11:19.225Z,30.64
2022-08-07T14:13:55.756Z,30.33
2022-08-07T14:16:31.347Z,30.35
2022-08-07T14:19:04.644Z,30.25
2022-08-07T14:22:04.074Z,31.06
2022-08-07T14:24:36.663Z,30.80
2022-08-07T14:28:09.909Z,30.68
2022-08-07T14:30:11.189Z,30.63
2022-08-07T14:32:45.527Z,30.20
2022-08-07T14:35:44.658Z,30.77
2022-08-07T14:38:09.707Z,30.57
2022-08-07T14:40:56.663Z,30.40
2022-08-07T14:43:57.987Z,29.95
2022-08-07T14:46:22.675Z,30.38
2022-08-07T14:49:55.680Z,30.31
2022-08-07T14:57:58.716Z,30.35
2022-08-07T15:03:19.681Z,30.12
2022-08-07T15:05:54.602Z,29.96
2022-08-07T15:11:54.437Z,30.29
2022-08-07T15:14:18.080Z,30.58
2022-08-07T15:16:54.583Z,30.57
2022-08-07T15:20:23.659Z,30.72
2022-08-07T15:28:30.990Z,30.52
2022-08-07T15:31:05.091Z,29.84
2022-08-07T15:37:02.491Z,30.06
2022-08-07T15:39:14.186Z,30.10
2022-08-07T15:44:52.128Z,30.54
2022-08-07T15:47:59.860Z,30.46
2022-08-07T15:50:37.719Z,29.95
2022-08-07T15:53:06.533Z,29.85
2022-08-07T15:55:53.448Z,29.49
2022-08-07T15:58:35.870Z,30.11
2022-08-07T16:01:04.971Z,30.36
2022-08-07T16:03:47.437Z,30.07
2022-08-07T16:06:30.062Z,29.79
2022-08-07T16:09:03.005Z,29.87
2022-08-07T16:11:52.298Z,30.19
2022-08-07T16:14:34.112Z,30.22
2022-08-07T16:18:01.973Z,29.49
2022-08-07T16:20:33.745Z,29.50
2022-08-07T16:23:52.998Z,29.63
2022-08-07T16:26:14.510Z,29.85
2022-08-07T16:30:07.886Z,29.34
2022-08-07T16:32:00.653Z,29.55
2022-08-07T16:34:48.152Z,29.44
2022-08-07T16:38:06.870Z,29.93
2022-08-07T16:41:16.488Z,29.63
2022-08-07T16:44:46.045Z,29.62
2022-08-07T16:47:49.618Z,29.83
2022-08-07T16:50:39.322Z,29.55
2022-08-07T16:54:02.607Z,29.59
2022-08-07T16:56:37.641Z,29.43
2022-08-07T16:59:17.234Z,29.13
2022-08-07T17:02:02.792Z,29.53
2022-08-07T17:04:51.093Z,29.48
2022-08-07T17:07:55.954Z,29.16
2022-08-07T17:10:32.880Z,29.35
2022-08-07T17:13:17.831Z,29.09
2022-08-07T17:15:54.951Z,28.92
2022-08-07T17:18:30.840Z,28.90
2022-08-07T17:21:00.859Z,28.96
2022-08-07T17:23:41.578Z,29.06
2022-08-07T17:26:23.397Z,28.92
2022-08-07T17:30:12.683Z,28.90
2022-08-07T17:32:30.100Z,28.74
2022-08-07T17:35:49.811Z,28.67
2022-08-07T17:38:05.419Z,28.67
2022-08-07T17:40:50.766Z,28.57
2022-08-07T17:44:01.510Z,28.57
2022-08-07T17:46:18.253Z,28.58
2022-08-07T17:49:02.875Z,28.56
2022-08-07T17:51:49.637Z,28.46
2022-08-07T17:54:54.068Z,28.43
2022-08-07T17:57:56.400Z,28.32
2022-08-07T18:00:33.294Z,28.18
2022-08-07T18:03:18.453Z,28.08
2022-08-07T18:06:01.860Z,28.24
2022-08-07T18:09:00.769Z,27.75
2022-08-07T18:12:07.105Z,27.90
2022-08-07T18:14:28.811Z,27.92
2022-08-07T18:17:01.262Z,27.59
2022-08-07T18:21:11.507Z,27.64
2022-08-07T18:22:34.129Z,27.79
2022-08-07T18:25:19.137Z,27.68
2022-08-07T18:28:34.517Z,27.44
2022-08-07T18:31:05.558Z,27.31
2022-08-07T18:33:58.300Z,27.39
2022-08-07T18:36:53.782Z,27.23
2022-08-07T18:40:07.166Z,27.05
2022-08-07T18:42:28.907Z,26.89
2022-08-07T18:45:43.560Z,27.14
2022-08-07T18:48:05.255Z,26.90
2022-08-07T18:50:49.361Z,26.93
2022-08-07T18:53:37.046Z,26.87
2022-08-07T18:56:14.915Z,26.46
2022-08-07T18:58:59.917Z,26.81
2022-08-07T19:02:18.187Z,26.73
2022-08-07T19:04:54.515Z,26.59
2022-08-07T19:07:34.428Z,26.58
2022-08-07T19:10:12.116Z,26.31
2022-08-07T19:12:53.765Z,26.46
2022-08-07T19:16:05.168Z,26.06
2022-08-07T19:18:35.481Z,26.04
2022-08-07T19:21:51.177Z,26.09
2022-08-07T19:24:30.403Z,26.02
2022-08-07T19:28:29.950Z,25.95
2022-08-07T19:31:02.235Z,25.96
2022-08-07T19:32:47.412Z,25.75
2022-08-07T19:35:26.710Z,25.61
2022-08-07T19:37:58.557Z,25.72
2022-08-07T19:40:31.007Z,25.32
2022-08-07T19:43:02.752Z,25.39
2022-08-07T19:46:09.433Z,25.39
2022-08-07T19:48:31.934Z,25.40
2022-08-07T19:51:19.143Z,25.22
2022-08-07T19:54:31.488Z,24.91
2022-08-07T19:57:51.733Z,24.90
2022-08-07T19:59:39.750Z,24.71
2022-08-07T20:02:19.758Z,24.94
2022-08-07T20:04:51.990Z,24.80
2022-08-07T20:07:45.983Z,24.62
2022-08-07T20:10:35.702Z,24.65
2022-08-07T20:13:07.369Z,24.60
2022-08-07T20:15:51.245Z,24.55
2022-08-07T20:18:32.958Z,24.28
2022-08-07T20:21:14.524Z,24.32
2022-08-07T20:23:58.003Z,24.13
2022-08-07T20:26:32.352Z,23.88
2022-08-07T20:29:10.357Z,23.95
2022-08-07T20:31:48.002Z,23.96
2022-08-07T20:34:39.998Z,23.74
2022-08-07T20:37:11.134Z,23.83
2022-08-07T20:40:02.693Z,23.58
2022-08-07T20:42:34.405Z,23.77
2022-08-07T20:45:33.322Z,23.67
2022-08-07T20:47:58.366Z,23.57
2022-08-07T20:50:30.520Z,23.56
2022-08-07T20:52:59.258Z,23.46
2022-08-07T20:55:32.295Z,23.25
2022-08-07T20:58:11.837Z,23.29
2022-08-07T21:00:53.153Z,23.36
2022-08-07T21:03:25.983Z,23.07
2022-08-07T21:06:00.784Z,23.23
2022-08-07T21:08:37.876Z,22.87
2022-08-07T21:11:12.385Z,22.95
2022-08-07T21:14:16.448Z,22.96
2022-08-07T21:16:56.374Z,22.95
2022-08-07T21:19:32.440Z,22.96
2022-08-07T21:22:19.095Z,22.85
2022-08-07T21:25:12.515Z,22.88
2022-08-07T21:28:01.858Z,22.87
2022-08-07T21:30:39.249Z,22.72
2022-08-07T21:33:17.656Z,22.50
2022-08-07T21:36:06.004Z,22.43
2022-08-07T21:38:50.265Z,22.39
2022-08-07T21:41:24.422Z,22.46
2022-08-07T21:44:01.942Z,22.23
2022-08-07T21:46:41.891Z,22.03
2022-08-07T21:49:16.396Z,22.25
2022-08-07T21:52:04.066Z,22.03
2022-08-07T21:54:46.061Z,21.96
2022-08-07T21:57:39.913Z,21.82
2022-08-07T22:00:22.585Z,21.66
2022-08-07T22:02:59.958Z,21.80
2022-08-07T22:05:50.783Z,21.72
2022-08-07T22:08:23.189Z,21.84
2022-08-07T22:10:56.906Z,21.69
2022-08-07T22:13:51.233Z,21.57
2022-08-07T22:16:42.141Z,21.86
2022-08-07T22:19:23.640Z,21.43
2022-08-07T22:22:20.919Z,21.53
2022-08-07T22:25:08.197Z,21.46
2022-08-07T22:28:06.449Z,21.50
2022-08-07T22:30:37.440Z,21.41
2022-08-07T22:33:10.251Z,21.31
2022-08-07T22:35:46.988Z,21.17
2022-08-07T22:38:28.014Z,21.34
2022-08-07T22:41:02.953Z,21.31
2022-08-07T22:43:37.237Z,21.18
2022-08-07T22:47:02.243Z,21.15
2022-08-07T22:49:39.462Z,21.20
2022-08-07T22:52:47.508Z,21.01
2022-08-07T22:55:38.134Z,21.13
2022-08-07T22:58:31.775Z,20.73
2022-08-07T23:01:26.937Z,20.82
2022-08-07T23:04:29.993Z,20.88
2022-08-07T23:07:39.831Z,20.99
2022-08-07T23:10:38.183Z,20.81
2022-08-07T23:13:29.273Z,20.72
2022-08-07T23:16:46.311Z,20.77
2022-08-07T23:19:16.728Z,20.65
2022-08-07T23:21:50.553Z,20.83
2022-08-07T23:24:38.572Z,20.70
2022-08-07T23:27:33.485Z,20.63
2022-08-07T23:30:38.357Z,20.56
2022-08-07T23:34:35.254Z,20.54
2022-08-07T23:36:08.515Z,20.55
2022-08-07T23:38:58.193Z,20.73
2022-08-07T23:42:04.584Z,20.49
2022-08-07T23:44:48.981Z,20.52
2022-08-07T23:47:23.915Z,20.48
2022-08-07T23:50:16.204Z,20.41
2022-08-07T23:52:58.580Z,20.43
2022-08-07T23:55:53.134Z,20.34
2022-08-07T23:58:37.462Z,20.44
